Suggestion Search

Define a bounding box (note: it will not wrap North/South over poles). If the range is zero degrees, a bounding box will not be used to constrain the search.

Centered On °   °

Match text in the suggestion title, science rationale or special notes. The search is case-insensitive. % is a wildcard (_ for a single character).

Find
Search

You may select science themes to limit query, otherwise suggestions from all themes will be returned.

Multiple values may be selected (shift + click).

  Rows per page
1,393 records found, displaying 1 to 100.[First/Prev] 1, 2, 3, 4, 5, 6, 7, 8 [Next/Last]
ID Suggestion Title Latitude Longitude Repeat Created Observation ID
170317 Nilosyrtis Mensae 34.258 74.363 STEREO 2014-09-10 ESP_058495_2145
166858 Infilled channel 44.258 182.074 1 2018-10-10 ESP_057647_2245
166856 Blocky textures in Colles Nili 38.579 63.088 1 2018-10-09 ESP_057625_2190
166854 Flow features around obstacle 37.335 61.284 1 2018-10-09 ESP_057968_2175
166852 Interaction of viscous flows 37.181 61.231 1 2018-10-09 ESP_057691_2175
166730 Mantle contact area -65.566 159.217 1 2018-10-08 ESP_059244_1140
166728 Rough terrain exposed from under smooth mantle -65.543 159.446 1 2018-10-08 ESP_057688_1140
166664 Pit and scarp in mantle deposit -54.849 137.080 1 2018-10-06 ESP_057781_1250
166662 Flow Meets Crater 19.332 307.496 1 2018-10-06
166660 Complex channel terrain 17.461 305.117 1 2018-10-06 ESP_060214_1975
161785 Southern highlands -46.002 211.997 1 2016-03-16 ESP_055958_1335
161463 Periglacial sample -46.867 110.468 1 2006-08-21 ESP_055909_1330
160851 Northern plains surface texture 51.640 163.800 1 2015-07-27 ESP_055801_2320
151166 Crater fill flow 44.077 40.809 1 2017-08-14 ESP_052865_2245
151164 Glacial tongue 45.391 39.321 STEREO 2017-08-13 ESP_052285_2255
151162 Glacial tongue 45.391 39.321 STEREO 2017-08-13 ESP_052509_2255
151158 Ausonia Mensa -29.952 97.226 1 2017-08-12 ESP_058745_1500
151156 Ausonia Mensa -29.952 97.226 1 2017-08-12 ESP_058679_1500
149166 Pettit Crater wind streak and intracrater dunes 10.812 184.841 1 2017-06-06 ESP_051027_1910
147050 Layers and flow features in Protonilus Mensae 47.367 50.150 1 2017-04-26 ESP_050834_2275
146786 Cluster of ring depressions 49.462 198.398 1 2017-04-23 ESP_051145_2300
145546 Glacial flow in Protonilus region 41.271 54.722 2 2017-03-28 ESP_053326_2215
145544 Glacial flow in Protonilus region 41.271 54.722 2 2017-03-28 ESP_052403_2215
145538 Flow feature in Deuteronilus Mensae 44.039 28.156 STEREO 2017-03-28 ESP_050558_2245
145536 Flow feature in Deuteronilus Mensae 44.039 28.156 STEREO 2017-03-28 ESP_050281_2245
145534 Lobate debris apron 43.778 29.372 1 2017-03-28
145532 Flow feature in Deuteronilus Mensae 37.393 24.638 1 2017-03-28 ESP_051758_2175
145528 Flow east of Hellas Planitia -45.298 111.583 2 2017-03-28 ESP_050463_1345
145526 Flow east of Hellas Planitia -45.298 111.583 2 2017-03-28 ESP_055355_1345
145522 Flow feature -40.675 261.794 1 2017-03-28 ESP_051842_1390
145520 Glacial landforms near Argyre Planitia -45.830 308.597 1 2017-03-28 ESP_050469_1340
145514 Fissures at flow margin 44.461 274.816 1 2017-03-28 ESP_050984_2250
145512 Glacial flow feature 44.188 274.699 1 2017-03-28 ESP_050839_2245
144998 Cirque valley drainage system 40.874 26.242 1 2017-03-09 ESP_050769_2210
144996 Flow features in small valley 37.967 24.140 1 2017-03-09 ESP_051824_2185
144994 Crater fill material 38.900 20.228 1 2017-03-09 ESP_053947_2190
144992 Breached crater rim 38.919 20.421 1 2017-03-09 ESP_050255_2195
144990 Gullies and ablation 41.567 11.946 STEREO 2017-03-09 ESP_050743_2220
144988 Gullies and ablation 41.567 11.946 STEREO 2017-03-09 ESP_050875_2220
142894 Sinuous ridge and knob 45.953 17.804 1 2017-01-20 ESP_050110_2265
142542 Raised sinuous ridges -43.324 292.444 1 2017-01-03 ESP_050997_1365
142142 Mesa wall in Protonilus Mensae 42.222 50.517 2 2016-12-24 ESP_054025_2225
142140 Mesa Wall in Protonilus Mensae 42.222 50.517 2 2016-12-24 ESP_052535_2225
142138 Debris flow 40.869 51.388 2 2016-12-24
142136 Debris flow 40.869 51.388 2 2016-12-24 ESP_052680_2210
142030 Crater cross cut by fissure 14.764 164.682 1 2016-12-19 ESP_049419_1950
138906 Crater cross cut by fissure 14.764 164.682 1 2016-10-25 ESP_048707_1950
138894 Eroded valley -57.792 297.076 1 2016-10-23 ESP_048452_1220
138892 Eroded scarp -57.823 297.666 1 2016-10-23 ESP_048597_1220
138890 Viscous flow channel -38.007 97.076 1 2016-10-23 ESP_050213_1415
138888 Fault in crater -27.319 202.652 1 2016-10-23 ESP_049075_1525
138886 Flows in north Argyre Planitia rim -39.562 322.178 1 2016-10-22 ESP_049796_1400
138742 Viscous flow and gullies -39.528 312.288 1 2016-10-13 ESP_051972_1400
138740 Flow feature in Nereidum Montes -38.931 312.009 1 2016-10-13 ESP_050482_1405
138738 Viscous flow feature -34.631 36.860 1 2016-10-13 ESP_048145_1450
138736 Viscous flow feature -34.558 36.999 1 2016-10-13 ESP_048791_1450
138734 Glacial-like alcove -34.508 37.144 1 2016-10-13 ESP_048290_1450
138732 pasted on material in Nereidum Montes -43.213 310.044 1 2016-10-13 ESP_050192_1365
138730 Dao Vallis wall deposits -33.875 92.080 1 2016-10-13 ESP_048433_1460
138728 Mantled deposits in Dao Vallis -35.322 91.154 1 2016-10-13 ESP_048143_1445
133626 Polygonal raised ridges 48.616 35.925 1 2016-07-08 ESP_049239_2290
133624 Ridges and viscous flow 41.621 34.281 1 2016-07-08 ESP_047380_2220
132490 Intracrater flow feature 51.423 268.914 1 2016-06-23 ESP_046778_2320
132076 Crater rim and floor deposits -41.030 162.808 1 2016-06-19 ESP_047112_1385
132074 Sinuous ridge -14.994 109.223 1 2016-06-19 ESP_047483_1650
132072 Sinuous ridge -14.875 109.121 1 2016-06-19 ESP_046771_1650
132070 Mid Latitude Craters -34.695 108.835 1 2016-06-18
130476 Channel in rocky plateau -24.636 303.655 1 2016-05-31 ESP_061955_1550
130132 Convergence of lobate flows 37.565 319.397 1 2016-05-26 ESP_051299_2180
124464 Hanging valleys in Dao Vallis -35.329 91.059 STEREO 2016-03-22 ESP_048789_1445
124462 Hanging valleys in Dao Vallis -35.329 91.059 STEREO 2016-03-22 ESP_048222_1445
124266 Southern highlands terrain -43.509 212.000 1 2016-03-18 ESP_046741_1360
124214 Southern highlands -46.002 211.997 1 2016-03-16 ESP_056789_1335
124204 Southern highlands terrain -48.001 211.999 1 2016-03-16 ESP_046596_1315
124064 Southern highlands -50.012 211.999 1 2016-03-15 ESP_057277_1295
124062 Southern Highlands Terrain -52.007 212.005 1 2016-03-15
124060 Southern highlands terrain -54.000 211.993 1 2016-03-15 ESP_049932_1250
124058 Southern highlands terrain -55.999 212.000 1 2016-03-15 ESP_059387_1235
124056 Southern highland terrain -60.007 211.994 1 2016-03-15 ESP_046807_1195
124014 Southern highland terrain -58.003 212.000 1 2016-03-14 ESP_048231_1215
124012 Southern fissures -56.755 213.412 1 2016-03-14 ESP_050222_1230
124010 Contact sample -55.458 212.310 1 2016-03-14 ESP_047163_1240
124008 4-km diameter crater -56.288 210.521 1 2016-03-14 ESP_055457_1235
124006 Crater floor deposit -56.403 211.472 1 2016-03-14 ESP_057132_1235
124000 Southern highland knob -49.329 160.020 1 2016-03-13 ESP_048747_1305
123998 Eroded Crater Ejecta -48.212 159.274 1 2016-03-13
123996 Ejecta knobs -49.735 164.641 1 2016-03-13 ESP_046334_1300
123994 Channels in Drava Valles -49.439 165.929 1 2016-03-13 ESP_046624_1300
123992 Rocky terrain in Terra Cimmeria -51.259 164.696 STEREO 2016-03-12 ESP_057925_1285
123990 Rocky terrain in Terra Cimmeria -51.259 164.696 STEREO 2016-03-12 ESP_049182_1285
119716 Mesa in Deuteronilus Mensae 47.614 27.338 1 2015-11-28 ESP_046866_2280
119604 Gullied slope 45.560 277.562 1 2015-11-25 ESP_046870_2260
119602 Cross cutting features in Tempe Terra 45.675 276.470 1 2015-11-25 ESP_044325_2260
119596 Escarpment in north Tempe Terra 49.448 279.632 1 2015-11-25 ESP_050285_2300
119592 Escarpment in Tempe Terra 45.546 275.930 1 2015-11-25 ESP_046013_2260
119590 Escarpment in Tempe Terra 45.380 276.246 1 2015-11-25 ESP_045024_2255
119588 Escarpment in Tempe Terra 49.532 279.102 1 2015-11-25 ESP_045103_2295
119580 Escarpment in northern Tempe Terra 49.306 279.785 1 2015-11-24 ESP_046382_2295
119578 Escarpment in northern Tempe Terra 49.657 279.326 1 2015-11-24 ESP_046026_2300
119576 Escarpment in north Tempe Terra 49.448 279.632 1 2015-11-24 ESP_050074_2300

Each suggestion is given a unique ID. A stereo suggestion will be made into a pair at the discretion of the Science Theme Lead.

Suggestion title.

Latitudes are expressed in planetocentric degrees.

Longitude are measured in degrees and range east from 0 to 360.

1 for a single suggestion, STEREO for a stereo suggestion, otherwise the number of suggestions in a seasonal or other repeat set.

The date on which the suggestion was created.

If the suggestion has been retired, a link to the observation page.

The username of the suggester.